createdAt,value
2023-07-18T00:02:23.024Z,72.63
2023-07-18T00:04:50.654Z,72.86
2023-07-18T00:07:17.923Z,73.67
2023-07-18T00:09:45.581Z,73.39
2023-07-18T00:12:14.906Z,73.63
2023-07-18T00:14:43.426Z,74.23
2023-07-18T00:17:15.983Z,74.56
2023-07-18T00:19:43.281Z,75.40
2023-07-18T00:22:10.953Z,75.44
2023-07-18T00:24:38.425Z,75.46
2023-07-18T00:27:06.573Z,76.20
2023-07-18T00:29:35.629Z,76.34
2023-07-18T00:32:03.949Z,77.25
2023-07-18T00:34:31.604Z,77.55
2023-07-18T00:36:59.183Z,77.62
2023-07-18T00:39:27.285Z,78.37
2023-07-18T00:41:54.859Z,77.84
2023-07-18T00:44:22.405Z,78.03
2023-07-18T00:46:52.304Z,78.53
2023-07-18T00:49:22.793Z,78.77
2023-07-18T00:51:50.788Z,78.97
2023-07-18T00:54:18.951Z,79.50
2023-07-18T00:56:46.748Z,79.34
2023-07-18T00:59:17.399Z,79.37
2023-07-18T01:01:46.492Z,79.41
2023-07-18T01:04:16.812Z,79.86
2023-07-18T01:06:45.924Z,80.63
2023-07-18T01:09:14.672Z,81.45
2023-07-18T01:11:43.392Z,81.40
2023-07-18T01:14:10.980Z,81.63
2023-07-18T01:16:38.596Z,81.89
2023-07-18T01:19:06.046Z,81.97
2023-07-18T01:21:34.919Z,82.12
2023-07-18T01:24:04.786Z,82.86
2023-07-18T01:26:32.416Z,83.61
2023-07-18T01:28:59.810Z,84.00
2023-07-18T01:31:27.527Z,84.26
2023-07-18T01:33:55.167Z,84.29
2023-07-18T01:36:22.506Z,84.03
2023-07-18T01:38:52.291Z,84.70
2023-07-18T01:41:21.546Z,84.84
2023-07-18T01:43:49.127Z,84.46
2023-07-18T01:46:17.216Z,85.05
2023-07-18T01:48:44.497Z,85.62
2023-07-18T01:51:11.891Z,86.13
2023-07-18T01:53:39.932Z,86.65
2023-07-18T01:56:08.661Z,85.82
2023-07-18T01:58:36.594Z,85.85
2023-07-18T02:01:04.002Z,86.17
2023-07-18T02:03:31.927Z,86.28
2023-07-18T02:05:59.190Z,85.88
2023-07-18T02:08:28.154Z,86.30
2023-07-18T02:10:55.842Z,87.20
2023-07-18T02:13:24.888Z,87.64
2023-07-18T02:15:52.464Z,88.07
2023-07-18T02:18:20.109Z,88.46
2023-07-18T02:20:47.454Z,88.04
2023-07-18T02:23:14.805Z,88.61
2023-07-18T02:25:42.866Z,88.44
2023-07-18T02:28:10.224Z,88.24
2023-07-18T02:30:50.135Z,88.25
2023-07-18T02:33:17.586Z,88.23
2023-07-18T02:35:49.159Z,88.27
2023-07-18T02:38:17.082Z,88.24
2023-07-18T02:40:44.772Z,88.71
2023-07-18T02:43:12.082Z,88.56
2023-07-18T02:45:43.281Z,88.73
2023-07-18T02:48:10.654Z,89.01
2023-07-18T02:50:38.278Z,88.57
2023-07-18T02:53:05.647Z,88.40
2023-07-18T02:55:33.551Z,88.35
2023-07-18T02:58:01.150Z,88.74
2023-07-18T03:00:28.491Z,89.22
2023-07-18T03:02:57.706Z,88.99
2023-07-18T03:05:27.497Z,88.72
2023-07-18T03:07:55.020Z,88.99
2023-07-18T03:10:23.260Z,89.05
2023-07-18T03:15:31.765Z,89.80
2023-07-18T03:18:03.695Z,89.20
2023-07-18T03:20:31.383Z,89.17
2023-07-18T03:23:00.588Z,89.78
2023-07-18T03:25:28.104Z,90.50
2023-07-18T03:27:55.633Z,91.50
2023-07-18T03:30:23.821Z,91.67
2023-07-18T03:32:51.837Z,91.41
2023-07-18T03:35:20.651Z,91.81
2023-07-18T03:37:47.869Z,91.60
2023-07-18T03:40:15.550Z,91.06
2023-07-18T03:42:43.286Z,91.15
2023-07-18T03:45:12.413Z,91.25
2023-07-18T03:47:40.402Z,91.36
2023-07-18T03:50:09.500Z,91.53
2023-07-18T03:52:38.775Z,92.34
2023-07-18T03:55:07.330Z,92.22
2023-07-18T03:57:36.707Z,91.62
2023-07-18T04:00:06.871Z,91.68
2023-07-18T04:02:34.486Z,91.92
2023-07-18T04:05:01.935Z,91.86
2023-07-18T04:07:29.631Z,92.06
2023-07-18T04:09:58.449Z,91.68
2023-07-18T04:12:26.019Z,90.71
2023-07-18T04:14:53.399Z,90.75
2023-07-18T04:17:21.037Z,90.83
2023-07-18T04:19:48.491Z,90.50
2023-07-18T04:22:15.950Z,90.48
2023-07-18T04:24:43.586Z,90.54
2023-07-18T04:27:13.427Z,90.09
2023-07-18T04:29:40.756Z,89.36
2023-07-18T04:32:08.981Z,89.77
2023-07-18T04:34:36.670Z,89.44
2023-07-18T04:37:05.155Z,89.26
2023-07-18T04:39:32.542Z,89.02
2023-07-18T04:41:59.824Z,89.61
2023-07-18T04:44:36.989Z,89.28
2023-07-18T04:47:06.740Z,87.75
2023-07-18T04:49:34.117Z,87.92
2023-07-18T04:52:02.055Z,87.35
2023-07-18T04:54:30.135Z,87.61
2023-07-18T04:56:57.457Z,87.45
2023-07-18T04:59:25.028Z,86.93
2023-07-18T05:01:55.046Z,86.30
2023-07-18T05:04:23.079Z,85.59
2023-07-18T05:06:50.663Z,85.77
2023-07-18T05:09:18.442Z,85.09
2023-07-18T05:11:47.781Z,84.26
2023-07-18T05:14:15.500Z,83.28
2023-07-18T05:16:43.840Z,83.63
2023-07-18T05:19:14.379Z,82.54
2023-07-18T05:21:41.991Z,82.54
2023-07-18T05:24:09.549Z,81.77
2023-07-18T05:26:37.252Z,81.21
2023-07-18T05:29:04.942Z,81.42
2023-07-18T05:31:33.412Z,81.52
2023-07-18T05:34:00.779Z,81.52
2023-07-18T05:36:29.849Z,80.98
2023-07-18T05:38:57.195Z,81.18
2023-07-18T05:41:25.306Z,80.43
2023-07-18T05:43:53.022Z,80.18
2023-07-18T05:46:21.317Z,79.58
2023-07-18T05:48:48.778Z,79.27
2023-07-18T05:51:17.424Z,78.14
2023-07-18T05:53:51.903Z,78.24
2023-07-18T05:56:19.609Z,77.15
2023-07-18T05:58:47.272Z,77.62
2023-07-18T06:01:14.721Z,77.19
2023-07-18T06:03:49.867Z,77.22
2023-07-18T06:06:17.607Z,75.90
2023-07-18T06:08:46.474Z,76.20
2023-07-18T06:11:15.535Z,75.24
2023-07-18T06:13:43.911Z,74.23
2023-07-18T06:16:11.603Z,74.53
2023-07-18T06:18:39.009Z,73.68
2023-07-18T06:21:06.251Z,73.92
2023-07-18T06:23:33.605Z,74.29
2023-07-18T06:26:02.317Z,73.67
2023-07-18T06:28:29.912Z,74.07
2023-07-18T06:30:58.933Z,73.27
2023-07-18T06:33:26.532Z,72.13
2023-07-18T06:35:54.512Z,71.30
2023-07-18T06:38:21.994Z,70.74
2023-07-18T06:40:50.439Z,70.67
2023-07-18T06:43:19.802Z,70.33
2023-07-18T06:45:48.808Z,69.94
2023-07-18T06:48:17.829Z,69.14
2023-07-18T06:50:46.048Z,69.63
2023-07-18T06:55:55.221Z,69.66
2023-07-18T06:58:24.052Z,67.85
2023-07-18T07:00:57.158Z,66.82
2023-07-18T07:03:25.788Z,67.14
2023-07-18T07:05:55.665Z,66.18
2023-07-18T07:08:23.329Z,65.41
2023-07-18T07:10:50.510Z,66.44
2023-07-18T07:13:18.011Z,66.25
2023-07-18T07:15:47.167Z,66.20
2023-07-18T07:18:14.561Z,66.68
2023-07-18T07:20:41.981Z,65.72
2023-07-18T07:23:09.397Z,65.08
2023-07-18T07:25:36.987Z,65.78
2023-07-18T07:28:05.017Z,65.99
2023-07-18T07:30:32.478Z,66.15
2023-07-18T07:33:01.370Z,66.00
2023-07-18T07:35:28.767Z,66.05
2023-07-18T07:37:56.762Z,65.56
2023-07-18T07:40:24.521Z,65.25
2023-07-18T07:42:52.107Z,65.38
2023-07-18T07:45:19.846Z,64.59
2023-07-18T07:47:47.824Z,65.17
2023-07-18T07:50:16.817Z,64.65
2023-07-18T07:52:44.126Z,64.80
2023-07-18T07:55:15.791Z,64.17
2023-07-18T07:57:43.897Z,63.56
2023-07-18T08:00:12.794Z,61.84
2023-07-18T08:02:42.097Z,61.05
2023-07-18T08:05:09.725Z,61.62
2023-07-18T08:07:39.278Z,61.72
2023-07-18T08:10:07.429Z,60.27
2023-07-18T08:12:34.704Z,59.93
2023-07-18T08:15:02.120Z,59.84
2023-07-18T08:17:32.241Z,60.21
2023-07-18T08:20:00.404Z,60.39
2023-07-18T08:22:28.879Z,60.49
2023-07-18T08:24:57.843Z,60.36
2023-07-18T08:27:25.104Z,58.68
2023-07-18T08:29:52.514Z,58.31
2023-07-18T08:32:19.945Z,56.08
2023-07-18T08:34:47.543Z,56.28
2023-07-18T08:37:16.952Z,57.31
2023-07-18T08:39:44.145Z,56.33
2023-07-18T08:42:14.809Z,56.38
2023-07-18T08:44:43.722Z,56.41
2023-07-18T08:47:12.956Z,55.47
2023-07-18T08:49:41.458Z,53.30
2023-07-18T08:52:09.173Z,49.11
2023-07-18T08:54:36.720Z,46.97
2023-07-18T08:57:05.101Z,42.56
2023-07-18T08:59:34.240Z,43.30
2023-07-18T09:02:01.848Z,41.92
2023-07-18T09:04:30.020Z,43.05
2023-07-18T09:07:00.567Z,46.57
2023-07-18T09:09:28.564Z,48.75
2023-07-18T09:12:01.817Z,49.36
2023-07-18T09:14:35.582Z,47.38
2023-07-18T09:17:06.162Z,48.61
2023-07-18T09:19:37.935Z,45.93
2023-07-18T09:22:07.104Z,44.28
2023-07-18T09:24:35.129Z,43.56
2023-07-18T09:27:03.157Z,45.50
2023-07-18T09:29:30.513Z,46.65
2023-07-18T09:32:00.152Z,44.57
2023-07-18T09:34:28.603Z,42.88
2023-07-18T09:36:57.594Z,41.06
2023-07-18T09:39:26.271Z,40.08
2023-07-18T09:41:54.276Z,40.35
2023-07-18T09:44:32.542Z,40.30
2023-07-18T09:47:02.792Z,40.64
2023-07-18T09:49:34.003Z,39.14
2023-07-18T09:52:08.166Z,40.15
2023-07-18T09:54:35.633Z,37.90
2023-07-18T09:57:05.560Z,38.65
2023-07-18T09:59:36.402Z,36.66
2023-07-18T10:02:06.623Z,38.11
2023-07-18T10:04:34.688Z,37.20
2023-07-18T10:07:03.340Z,36.45
2023-07-18T10:09:33.172Z,36.69
2023-07-18T10:12:11.683Z,36.54
2023-07-18T10:14:51.210Z,36.39
2023-07-18T10:17:40.513Z,37.93
2023-07-18T10:20:12.800Z,38.63
2023-07-18T10:22:47.738Z,39.72
2023-07-18T10:25:20.379Z,39.83
2023-07-18T10:27:49.387Z,38.14
2023-07-18T10:30:18.766Z,36.64
2023-07-18T10:32:54.834Z,35.80
2023-07-18T10:35:23.701Z,35.62
2023-07-18T10:37:53.461Z,37.70
2023-07-18T10:40:35.738Z,36.50
2023-07-18T10:43:03.456Z,35.79
2023-07-18T10:45:40.041Z,34.11
2023-07-18T10:48:29.386Z,34.22
2023-07-18T10:50:57.037Z,33.85
2023-07-18T10:53:25.420Z,33.01
2023-07-18T10:55:53.946Z,32.40
2023-07-18T10:58:22.228Z,31.70
2023-07-18T11:00:51.375Z,33.79
2023-07-18T11:03:21.598Z,36.40
2023-07-18T11:05:51.676Z,39.60
2023-07-18T11:08:25.980Z,39.77
2023-07-18T11:10:58.714Z,35.75
2023-07-18T11:13:29.985Z,35.71
2023-07-18T11:15:58.330Z,36.80
2023-07-18T11:18:26.768Z,38.61
2023-07-18T11:20:56.991Z,36.69
2023-07-18T11:23:25.038Z,34.84
2023-07-18T11:25:53.162Z,34.43
2023-07-18T11:28:20.749Z,34.58
2023-07-18T11:30:48.963Z,33.05
2023-07-18T11:33:16.640Z,33.62
2023-07-18T11:35:49.163Z,31.06
2023-07-18T11:38:19.161Z,33.95
2023-07-18T11:40:46.780Z,33.16
2023-07-18T11:43:18.537Z,30.76
2023-07-18T11:45:45.971Z,33.37
2023-07-18T11:48:14.311Z,37.08
2023-07-18T11:50:44.223Z,34.80
2023-07-18T11:53:14.000Z,34.23
2023-07-18T11:55:43.063Z,32.71
2023-07-18T11:58:10.367Z,33.00
2023-07-18T12:00:38.217Z,33.25
2023-07-18T12:03:06.721Z,34.41
2023-07-18T12:05:34.436Z,34.93
2023-07-18T12:08:02.024Z,33.55
2023-07-18T12:10:29.698Z,33.28
2023-07-18T12:12:58.960Z,32.08
2023-07-18T12:15:26.288Z,33.14
2023-07-18T12:17:54.158Z,35.64
2023-07-18T12:20:21.385Z,37.09
2023-07-18T12:22:48.980Z,37.49
2023-07-18T12:25:16.722Z,36.07
2023-07-18T12:27:44.058Z,39.20
2023-07-18T12:30:13.918Z,40.45
2023-07-18T12:35:22.653Z,39.45
2023-07-18T12:37:50.030Z,40.50
2023-07-18T12:40:17.986Z,40.13
2023-07-18T12:42:45.913Z,39.25
2023-07-18T12:45:15.975Z,38.77
2023-07-18T12:47:43.305Z,36.55
2023-07-18T12:50:12.688Z,36.60
2023-07-18T12:52:40.374Z,38.01
2023-07-18T12:55:08.868Z,37.28
2023-07-18T12:57:37.958Z,36.93
2023-07-18T13:00:07.044Z,34.12
2023-07-18T13:02:37.366Z,34.70
2023-07-18T13:05:05.261Z,37.47
2023-07-18T13:07:34.197Z,37.02
2023-07-18T13:10:01.925Z,38.08
2023-07-18T13:12:30.594Z,36.91
2023-07-18T13:14:58.267Z,33.42
2023-07-18T13:17:26.063Z,33.52
2023-07-18T13:19:55.841Z,32.35
2023-07-18T13:22:23.441Z,30.65
2023-07-18T13:24:50.988Z,30.92
2023-07-18T13:27:18.579Z,30.33
2023-07-18T13:29:45.835Z,29.67
2023-07-18T13:32:14.755Z,30.01
2023-07-18T13:34:44.668Z,30.38
2023-07-18T13:37:15.348Z,29.81
2023-07-18T13:39:43.515Z,31.65
2023-07-18T13:42:10.962Z,33.72
2023-07-18T13:44:39.454Z,34.07
2023-07-18T13:47:07.364Z,36.15
2023-07-18T13:52:06.018Z,34.77
2023-07-18T13:54:36.166Z,35.55
2023-07-18T13:57:05.361Z,34.45
2023-07-18T13:59:33.039Z,33.96
2023-07-18T14:02:00.473Z,33.67
2023-07-18T14:04:27.932Z,33.45
2023-07-18T14:06:55.356Z,35.19
2023-07-18T14:09:22.790Z,33.88
2023-07-18T14:11:52.154Z,33.04
2023-07-18T14:14:21.281Z,34.47
2023-07-18T14:16:49.221Z,34.71
2023-07-18T14:19:17.270Z,35.67
2023-07-18T14:21:53.095Z,36.35
2023-07-18T14:24:22.218Z,35.29
2023-07-18T14:26:52.756Z,34.45
2023-07-18T14:29:20.447Z,34.96
2023-07-18T14:31:48.175Z,35.29
2023-07-18T14:34:15.685Z,36.67
2023-07-18T14:36:43.283Z,35.70
2023-07-18T14:39:10.948Z,35.61
2023-07-18T14:41:39.204Z,36.03
2023-07-18T14:44:08.485Z,35.80
2023-07-18T14:46:36.171Z,37.15
2023-07-18T14:49:03.905Z,36.45
2023-07-18T14:51:32.954Z,35.93
2023-07-18T14:54:00.560Z,36.12
2023-07-18T14:56:28.213Z,36.39
2023-07-18T14:58:55.790Z,35.99
2023-07-18T15:01:24.844Z,36.08
2023-07-18T15:03:52.639Z,37.20
2023-07-18T15:06:20.691Z,37.51
2023-07-18T15:08:52.138Z,36.42
2023-07-18T15:11:23.564Z,37.26
2023-07-18T15:13:51.496Z,37.11
2023-07-18T15:16:19.891Z,36.64
2023-07-18T15:18:49.902Z,36.16
2023-07-18T15:21:17.596Z,36.06
2023-07-18T15:23:45.050Z,36.01
2023-07-18T15:26:13.446Z,36.79
2023-07-18T15:28:40.766Z,36.58
2023-07-18T15:31:08.025Z,35.67
2023-07-18T15:33:35.623Z,36.04
2023-07-18T15:36:05.968Z,34.98
2023-07-18T15:38:33.761Z,36.18
2023-07-18T15:41:01.091Z,35.35
2023-07-18T15:43:28.758Z,35.60
2023-07-18T15:45:56.940Z,35.22
2023-07-18T15:48:25.108Z,36.12
2023-07-18T15:50:53.046Z,34.10
2023-07-18T15:53:22.697Z,34.08
2023-07-18T15:55:51.195Z,35.76
2023-07-18T15:58:20.179Z,36.92
2023-07-18T16:00:48.226Z,37.28
2023-07-18T16:03:15.969Z,37.29
2023-07-18T16:05:44.666Z,37.56
2023-07-18T16:08:12.397Z,37.25
2023-07-18T16:10:41.367Z,35.80
2023-07-18T16:13:10.437Z,35.56
2023-07-18T16:15:38.269Z,35.38
2023-07-18T16:18:06.016Z,36.39
2023-07-18T16:20:33.549Z,38.20
2023-07-18T16:23:01.166Z,36.08
2023-07-18T16:25:28.762Z,36.96
2023-07-18T16:27:57.937Z,36.87
2023-07-18T16:30:25.714Z,37.30
2023-07-18T16:32:53.188Z,37.08
2023-07-18T16:35:20.856Z,36.62
2023-07-18T16:37:49.008Z,36.54
2023-07-18T16:40:16.434Z,38.35
2023-07-18T16:42:43.901Z,38.49
2023-07-18T16:45:13.305Z,37.56
2023-07-18T16:47:41.021Z,37.65
2023-07-18T16:50:09.304Z,37.78
2023-07-18T16:52:36.906Z,38.18
2023-07-18T16:55:05.493Z,38.05
2023-07-18T16:57:32.800Z,39.39
2023-07-18T17:00:00.332Z,39.48
2023-07-18T17:02:29.618Z,39.43
2023-07-18T17:04:58.577Z,38.99
2023-07-18T17:07:25.975Z,41.00
2023-07-18T17:09:53.272Z,40.28
2023-07-18T17:12:20.683Z,40.33
2023-07-18T17:14:48.257Z,42.55
2023-07-18T17:17:15.777Z,41.88
2023-07-18T17:19:58.926Z,42.20
2023-07-18T17:22:35.435Z,43.90
2023-07-18T17:25:06.672Z,43.66
2023-07-18T17:27:34.263Z,43.25
2023-07-18T17:30:01.955Z,43.39
2023-07-18T17:32:29.603Z,43.90
2023-07-18T17:34:58.614Z,45.33
2023-07-18T17:37:26.222Z,44.98
2023-07-18T17:42:34.984Z,46.58
2023-07-18T17:45:02.684Z,44.86
2023-07-18T17:47:30.100Z,44.37
2023-07-18T17:50:06.944Z,45.30
2023-07-18T17:52:34.993Z,45.50
2023-07-18T17:55:02.360Z,45.04
2023-07-18T17:57:29.663Z,45.04
2023-07-18T17:59:57.005Z,45.11
2023-07-18T18:02:25.192Z,45.36
2023-07-18T18:04:57.103Z,45.30
2023-07-18T18:07:27.474Z,45.77
2023-07-18T18:09:55.698Z,45.27
2023-07-18T18:12:22.993Z,45.56
2023-07-18T18:14:51.231Z,46.58
2023-07-18T18:17:19.329Z,46.86
2023-07-18T18:19:47.885Z,46.71
2023-07-18T18:22:15.531Z,47.36
2023-07-18T18:24:44.880Z,47.36
2023-07-18T18:27:12.536Z,48.67
2023-07-18T18:29:40.965Z,49.33
2023-07-18T18:32:09.267Z,50.67
2023-07-18T18:34:36.939Z,50.27
2023-07-18T18:37:06.459Z,51.34
2023-07-18T18:39:41.525Z,49.76
2023-07-18T18:42:30.216Z,51.25
2023-07-18T18:44:57.582Z,51.62
2023-07-18T18:47:25.598Z,54.42
2023-07-18T18:49:53.059Z,56.05
2023-07-18T18:52:20.796Z,55.30
2023-07-18T18:54:58.679Z,54.56
2023-07-18T18:57:37.450Z,55.60
2023-07-18T19:00:05.714Z,56.57
2023-07-18T19:02:33.661Z,56.30
2023-07-18T19:05:01.626Z,58.02
2023-07-18T19:07:29.080Z,58.94
2023-07-18T19:09:57.215Z,59.76
2023-07-18T19:12:24.889Z,60.79
2023-07-18T19:14:57.149Z,59.74
2023-07-18T19:17:26.342Z,61.79
2023-07-18T19:19:54.592Z,63.65
2023-07-18T19:22:22.242Z,63.34
2023-07-18T19:24:49.598Z,61.32
2023-07-18T19:27:16.958Z,63.96
2023-07-18T19:29:44.392Z,64.96
2023-07-18T19:32:17.152Z,64.83
2023-07-18T19:34:44.523Z,66.40
2023-07-18T19:37:14.082Z,66.28
2023-07-18T19:42:26.570Z,67.49
2023-07-18T19:44:54.039Z,67.83
2023-07-18T19:47:23.320Z,68.80
2023-07-18T19:49:50.948Z,67.84
2023-07-18T19:52:18.198Z,67.18
2023-07-18T19:54:46.204Z,68.64
2023-07-18T19:57:13.799Z,67.02
2023-07-18T19:59:42.791Z,68.46
2023-07-18T20:04:53.067Z,69.88
2023-07-18T20:07:21.008Z,67.98
2023-07-18T20:09:48.663Z,68.48
2023-07-18T20:12:16.576Z,70.27
2023-07-18T20:14:45.486Z,68.99
2023-07-18T20:17:12.914Z,68.05
2023-07-18T20:19:40.340Z,69.59
2023-07-18T20:22:10.108Z,68.96
2023-07-18T20:27:19.242Z,68.72
2023-07-18T20:29:46.852Z,70.21
2023-07-18T20:32:14.677Z,72.05
2023-07-18T20:34:42.328Z,71.63
2023-07-18T20:37:13.124Z,72.08
2023-07-18T20:42:29.724Z,71.21
2023-07-18T20:47:42.266Z,70.88
2023-07-18T21:06:08.427Z,74.32
2023-07-18T21:12:25.165Z,73.87
2023-07-18T21:20:22.669Z,75.33
2023-07-18T21:31:11.056Z,76.48
2023-07-18T21:33:43.052Z,77.53
2023-07-18T21:36:10.429Z,76.58
2023-07-18T21:38:38.882Z,78.09
2023-07-18T21:41:07.305Z,78.51
2023-07-18T21:43:42.710Z,78.29
2023-07-18T21:46:14.001Z,78.22
2023-07-18T21:48:41.866Z,77.25
2023-07-18T21:51:10.917Z,78.71
2023-07-18T21:53:39.075Z,78.29
2023-07-18T21:56:07.362Z,78.82
2023-07-18T21:58:36.441Z,78.71
2023-07-18T22:01:03.978Z,77.50
2023-07-18T22:03:56.029Z,78.46
2023-07-18T22:06:26.752Z,80.49
2023-07-18T22:08:54.410Z,79.34
2023-07-18T22:11:22.091Z,79.46
2023-07-18T22:13:50.895Z,78.18
2023-07-18T22:16:18.521Z,79.94
2023-07-18T22:18:46.111Z,79.00
2023-07-18T22:21:19.110Z,80.47
2023-07-18T22:23:47.765Z,80.69
2023-07-18T22:26:15.929Z,79.30
2023-07-18T22:28:43.567Z,80.44
2023-07-18T22:31:12.279Z,80.68
2023-07-18T22:33:40.383Z,80.89
2023-07-18T22:36:07.816Z,81.82
2023-07-18T22:38:37.345Z,81.84
2023-07-18T22:41:04.954Z,82.16
2023-07-18T22:43:32.587Z,82.59
2023-07-18T22:46:00.265Z,82.95
2023-07-18T22:48:29.399Z,82.39
2023-07-18T22:50:57.133Z,83.29
2023-07-18T22:53:24.616Z,83.50
2023-07-18T22:55:54.455Z,83.81
2023-07-18T22:58:29.567Z,84.90
2023-07-18T23:00:57.827Z,84.76
2023-07-18T23:03:29.352Z,83.85
2023-07-18T23:05:57.012Z,83.77
2023-07-18T23:08:29.708Z,84.91
2023-07-18T23:11:01.580Z,84.50
2023-07-18T23:13:36.583Z,85.44
2023-07-18T23:16:04.626Z,86.32
2023-07-18T23:18:31.993Z,86.88
2023-07-18T23:20:59.349Z,86.65
2023-07-18T23:23:27.055Z,87.44
2023-07-18T23:25:54.808Z,86.82
2023-07-18T23:28:39.065Z,84.49
2023-07-18T23:31:06.784Z,84.70
2023-07-18T23:33:34.926Z,85.92
2023-07-18T23:36:02.665Z,86.90
2023-07-18T23:38:30.022Z,86.00
2023-07-18T23:40:59.146Z,86.11
2023-07-18T23:43:27.232Z,85.40
2023-07-18T23:45:57.139Z,84.53
2023-07-18T23:48:24.520Z,85.41
2023-07-18T23:50:52.174Z,86.51
2023-07-18T23:53:20.293Z,86.61
2023-07-18T23:55:48.503Z,86.99
2023-07-18T23:58:16.135Z,86.86
